Time;durP1;ratioP1;P1;durP2;ratioP2;P2;SDS_P1;SDS_P2;PMS_P1;PMS_P2;Temp;Humidity;BMP_temperature;BMP_pressure;BME280_temperature;BME280_humidity;BME280_pressure;Samples;Min_cycle;Max_cycle;Signal;HPM_P1;HPM_P2
2022/09/28 00:01:20;;;;;;;4.10;0.90;;;;;;;17.37;57.11;93111.59;6191154;23;20016;-86
2022/09/28 00:03:47;;;;;;;9.02;1.10;;;;;;;17.26;56.74;93112.41;6216250;23;20000;-86
2022/09/28 00:06:16;;;;;;;5.00;1.10;;;;;;;17.32;55.95;93116.38;6216965;23;20362;-86
2022/09/28 00:08:41;;;;;;;6.18;1.45;;;;;;;17.02;57.32;93119.41;6191320;23;20059;-86
2022/09/28 00:11:11;;;;;;;9.02;1.10;;;;;;;17.14;56.96;93110.63;6216005;23;19997;-86
2022/09/28 00:13:37;;;;;;;4.70;0.93;;;;;;;17.12;57.36;93118.13;6191853;23;20023;-85
2022/09/28 00:16:12;;;;;;;3.67;0.85;;;;;;;17.38;58.06;93112.34;6216135;23;20001;-86
2022/09/28 00:18:37;;;;;;;4.25;1.35;;;;;;;17.12;56.50;93104.91;6191443;23;20001;-86
2022/09/28 00:21:14;;;;;;;7.50;1.27;;;;;;;17.14;56.78;93113.28;6216289;23;20014;-86
2022/09/28 00:26:26;;;;;;;7.25;1.08;;;;;;;16.87;58.89;93099.69;6216375;23;20015;-86
2022/09/28 00:28:57;;;;;;;6.55;1.13;;;;;;;16.65;59.98;93099.91;6215750;23;19996;-87
2022/09/28 00:31:25;;;;;;;9.55;1.20;;;;;;;16.66;59.43;93100.69;6216546;23;20048;-86
2022/09/28 00:33:51;;;;;;;11.10;1.65;;;;;;;17.01;58.95;93105.38;6215877;23;20001;-88
2022/09/28 00:36:18;;;;;;;9.15;1.13;;;;;;;17.14;57.57;93100.03;6216246;23;20051;-87
2022/09/28 00:38:43;;;;;;;8.30;1.33;;;;;;;16.93;58.61;93107.06;6217579;23;20042;-86
2022/09/28 00:41:12;;;;;;;9.05;1.35;;;;;;;17.21;58.33;93093.03;6190675;23;20009;-87
2022/09/28 00:43:37;;;;;;;7.78;1.17;;;;;;;16.92;59.69;93104.75;6216763;23;20369;-88
2022/09/28 00:46:09;;;;;;;8.27;1.17;;;;;;;17.00;60.08;93095.13;6216140;23;20001;-87
2022/09/28 00:48:36;;;;;;;6.35;1.42;;;;;;;16.86;60.28;93100.81;6216294;23;20284;-86
2022/09/28 00:51:06;;;;;;;9.00;1.48;;;;;;;17.04;59.60;93090.72;6190890;23;20000;-86
2022/09/28 00:53:34;;;;;;;7.25;0.93;;;;;;;16.96;59.75;93093.16;6215756;23;20004;-88
2022/09/28 00:56:17;;;;;;;7.38;1.33;;;;;;;17.01;59.65;93078.94;6191601;23;20323;-86
2022/09/28 00:58:46;;;;;;;7.18;1.52;;;;;;;17.33;59.29;93091.44;6215755;23;20398;-86
2022/09/28 01:01:11;;;;;;;7.32;1.45;;;;;;;17.66;58.53;93093.75;6215578;23;20012;-86
2022/09/28 01:03:40;;;;;;;9.35;1.10;;;;;;;17.42;58.30;93091.28;6190949;23;20050;-86
2022/09/28 01:06:07;;;;;;;7.22;1.30;;;;;;;17.64;56.97;93090.66;6215507;23;20008;-86
2022/09/28 01:08:33;;;;;;;7.80;1.27;;;;;;;16.78;59.92;93097.97;6215976;23;19997;-87
2022/09/28 01:10:59;;;;;;;4.95;1.10;;;;;;;17.22;58.78;93096.47;6215884;23;20001;-86
2022/09/28 01:13:25;;;;;;;6.10;0.88;;;;;;;16.86;59.27;93091.00;6216077;23;20008;-86
2022/09/28 01:16:06;;;;;;;4.38;1.10;;;;;;;17.16;60.04;93084.59;6215711;23;20064;-86
2022/09/28 01:18:44;;;;;;;7.72;1.38;;;;;;;16.97;60.26;93086.00;6215711;23;20007;-87
2022/09/28 01:21:11;;;;;;;8.80;1.38;;;;;;;16.93;61.14;93075.31;6216116;23;20064;-86
2022/09/28 01:23:36;;;;;;;8.45;1.27;;;;;;;16.53;62.97;93078.78;6217105;23;20024;-86
2022/09/28 01:26:26;;;;;;;16.20;1.80;;;;;;;16.99;62.25;93080.34;6216232;23;19996;-86
2022/09/28 01:28:56;;;;;;;7.15;1.20;;;;;;;16.93;60.56;93090.44;6215922;23;20000;-86
2022/09/28 01:31:25;;;;;;;6.90;1.02;;;;;;;17.31;57.96;93073.25;6216166;23;20005;-86
2022/09/28 01:33:57;;;;;;;8.57;1.52;;;;;;;17.40;58.91;93078.38;6215564;23;20366;-86
2022/09/28 01:36:27;;;;;;;12.77;1.58;;;;;;;17.72;57.20;93074.94;6216201;23;20004;-86
2022/09/28 01:38:55;;;;;;;8.63;1.05;;;;;;;17.78;57.99;93079.63;6215382;23;19997;-86
2022/09/28 01:41:22;;;;;;;7.82;1.70;;;;;;;17.16;59.31;93076.66;6215461;23;20005;-86
2022/09/28 01:44:01;;;;;;;16.40;1.58;;;;;;;17.17;60.79;93078.19;6215422;23;20365;-86
2022/09/28 01:46:40;;;;;;;6.75;1.42;;;;;;;17.38;58.83;93077.94;6215583;23;20435;-86
2022/09/28 01:49:20;;;;;;;9.50;1.25;;;;;;;17.71;57.99;93070.75;6215825;23;20357;-86
2022/09/28 01:51:54;;;;;;;8.70;1.30;;;;;;;17.27;59.28;93079.56;6215968;23;20350;-87
2022/09/28 01:54:44;;;;;;;11.50;1.08;;;;;;;17.36;57.93;93080.94;6191494;23;20007;-87
2022/09/28 01:57:24;;;;;;;6.63;1.27;;;;;;;18.03;55.31;93071.50;6215173;23;20394;-86
2022/09/28 01:59:56;;;;;;;6.85;1.15;;;;;;;17.42;58.90;93072.75;6215123;23;20322;-87
2022/09/28 02:02:28;;;;;;;6.07;1.27;;;;;;;17.61;55.85;93072.81;6191156;23;19996;-86
2022/09/28 02:05:00;;;;;;;6.32;1.15;;;;;;;18.32;54.84;93079.25;6215468;23;20008;-86
2022/09/28 02:07:30;;;;;;;5.78;1.38;;;;;;;16.94;60.58;93082.13;6215870;23;20019;-86
2022/09/28 02:10:01;;;;;;;8.65;1.27;;;;;;;16.99;59.96;93083.00;6190098;23;20001;-86
2022/09/28 02:12:36;;;;;;;19.15;1.52;;;;;;;17.76;57.17;93104.91;6215394;23;20005;-87
2022/09/28 02:15:16;;;;;;;11.68;1.40;;;;;;;17.74;57.25;93092.03;6215978;23;19996;-86
2022/09/28 02:17:41;;;;;;;6.90;1.40;;;;;;;18.31;55.68;93099.72;6215764;23;20362;-86
2022/09/28 02:20:07;;;;;;;12.75;1.75;;;;;;;17.82;58.02;93087.66;6216777;23;20011;-86
2022/09/28 02:22:39;;;;;;;9.85;2.08;;;;;;;17.15;64.87;93085.69;6192687;23;20341;-86
2022/09/28 02:25:18;;;;;;;7.65;1.60;;;;;;;17.49;60.99;93081.63;6217331;23;20046;-86
2022/09/28 02:27:55;;;;;;;9.50;1.30;;;;;;;17.60;63.74;93081.84;6219082;23;20394;-87
2022/09/28 02:30:21;;;;;;;8.18;1.35;;;;;;;17.23;62.62;93077.59;6217518;23;20024;-86
2022/09/28 02:32:48;;;;;;;12.15;1.73;;;;;;;17.52;60.48;93083.56;6192308;23;20055;-86
2022/09/28 02:35:16;;;;;;;8.20;1.40;;;;;;;17.59;61.06;93082.97;6217506;23;20005;-87
2022/09/28 02:37:42;;;;;;;5.25;1.20;;;;;;;17.76;59.79;93076.56;6192592;23;19997;-87
2022/09/28 02:40:31;;;;;;;17.20;1.38;;;;;;;17.80;60.12;93080.03;6192185;23;20050;-86
2022/09/28 02:43:18;;;;;;;15.55;2.50;;;;;;;17.66;60.88;93072.56;6192665;23;20416;-86
2022/09/28 02:46:05;;;;;;;6.47;1.73;;;;;;;17.89;60.48;93074.56;6217270;23;20357;-85
2022/09/28 02:48:57;;;;;;;9.95;1.42;;;;;;;17.95;60.38;93075.06;6217645;23;20000;-86
2022/09/28 02:51:32;;;;;;;11.27;1.95;;;;;;;17.15;61.04;93073.25;6217023;23;20008;-86
2022/09/28 02:54:12;;;;;;;13.15;1.75;;;;;;;17.23;64.05;93071.53;6217238;23;19997;-86
2022/09/28 02:56:59;;;;;;;16.55;1.52;;;;;;;17.58;60.34;93067.44;6217207;23;20027;-86
2022/09/28 02:59:36;;;;;;;14.82;2.03;;;;;;;17.76;59.74;93067.81;6216825;23;19993;-86
2022/09/28 03:02:07;;;;;;;6.65;1.15;;;;;;;17.97;60.25;93075.47;6216928;23;20009;-86
2022/09/28 03:05:03;;;;;;;8.88;1.45;;;;;;;18.41;58.70;93079.84;6218268;23;20411;-86
2022/09/28 03:07:35;;;;;;;14.13;1.73;;;;;;;18.20;59.96;93082.81;6216877;23;20001;-86
2022/09/28 03:10:00;;;;;;;10.55;1.52;;;;;;;18.12;58.39;93075.81;6216595;23;19993;-86
2022/09/28 03:12:28;;;;;;;12.77;1.98;;;;;;;18.02;63.40;93069.16;6217340;23;20317;-86
2022/09/28 03:15:24;;;;;;;15.57;1.88;;;;;;;17.62;63.70;93071.69;6217008;23;20000;-86
2022/09/28 03:17:49;;;;;;;20.42;2.42;;;;;;;17.56;61.63;93070.44;6217315;23;20011;-86
2022/09/28 03:20:15;;;;;;;13.68;1.65;;;;;;;17.63;60.80;93062.63;6191771;23;20005;-86
2022/09/28 03:22:41;;;;;;;14.32;1.80;;;;;;;17.32;63.43;93061.53;6190817;23;20058;-87
2022/09/28 03:25:07;;;;;;;8.27;1.40;;;;;;;17.84;62.28;93058.94;6216922;23;20012;-86
2022/09/28 03:27:33;;;;;;;6.13;1.63;;;;;;;17.86;61.50;93055.94;6218118;23;20031;-86
2022/09/28 03:29:58;;;;;;;10.95;1.35;;;;;;;17.72;60.31;93051.09;6215956;23;20310;-86
2022/09/28 03:32:24;;;;;;;6.85;1.55;;;;;;;17.88;60.55;93056.38;6216615;23;19997;-86
2022/09/28 03:34:49;;;;;;;14.57;1.80;;;;;;;17.69;60.21;93055.19;6216508;23;20397;-86
2022/09/28 03:37:14;;;;;;;5.60;1.25;;;;;;;17.78;61.63;93053.13;6216835;23;20000;-86
2022/09/28 03:39:40;;;;;;;21.58;2.45;;;;;;;17.57;64.04;93053.41;6216028;23;19996;-86
2022/09/28 03:42:05;;;;;;;5.25;1.52;;;;;;;17.51;65.37;93052.91;6216585;23;20005;-86
2022/09/28 03:44:31;;;;;;;9.13;1.40;;;;;;;17.55;62.81;93045.06;6216405;23;19996;-86
2022/09/28 03:46:56;;;;;;;10.27;1.67;;;;;;;17.42;62.66;93046.25;6216480;23;20039;-86
2022/09/28 03:49:22;;;;;;;7.93;1.45;;;;;;;17.34;67.30;93048.72;6216077;23;20325;-86
2022/09/28 03:51:47;;;;;;;10.75;1.85;;;;;;;17.63;64.71;93046.00;6216961;23;20000;-86
2022/09/28 03:54:12;;;;;;;8.60;1.40;;;;;;;17.49;65.99;93049.06;6218131;23;20004;-86
2022/09/28 03:56:39;;;;;;;12.85;1.67;;;;;;;17.61;64.96;93041.03;6191518;23;20011;-86
2022/09/28 03:59:04;;;;;;;8.77;1.63;;;;;;;17.48;67.03;93039.59;6191463;23;20001;-86
2022/09/28 04:01:30;;;;;;;9.57;1.88;;;;;;;16.88;68.66;93035.09;6191339;23;20399;-86
2022/09/28 04:03:55;;;;;;;11.00;1.88;;;;;;;17.34;65.81;93038.13;6216229;23;20313;-86
2022/09/28 04:06:22;;;;;;;13.38;1.88;;;;;;;17.51;64.24;93030.97;6216273;23;20008;-86
2022/09/28 04:08:48;;;;;;;12.20;1.90;;;;;;;17.53;63.26;93018.16;6215920;23;20001;-86
2022/09/28 04:11:13;;;;;;;17.55;2.20;;;;;;;17.26;65.68;93023.22;6216430;23;20016;-86
2022/09/28 04:13:38;;;;;;;18.27;2.17;;;;;;;17.18;65.08;93022.28;6216172;23;20420;-86
2022/09/28 04:16:04;;;;;;;8.25;1.30;;;;;;;17.58;65.34;93006.53;6217622;23;20030;-86
2022/09/28 04:18:31;;;;;;;12.05;1.95;;;;;;;17.76;66.64;93015.63;6216141;23;19993;-86
2022/09/28 04:21:09;;;;;;;10.63;1.60;;;;;;;17.84;65.52;93005.97;6215641;23;20009;-86
2022/09/28 04:23:36;;;;;;;6.95;1.77;;;;;;;17.68;64.56;93005.97;6216153;23;19997;-86
2022/09/28 04:26:02;;;;;;;13.27;1.73;;;;;;;17.53;62.51;93002.28;6191692;23;20362;-86
2022/09/28 04:31:15;;;;;;;13.90;1.63;;;;;;;17.65;63.89;92993.44;6216282;23;20012;-86
2022/09/28 04:33:40;;;;;;;11.50;1.85;;;;;;;17.76;64.04;92991.78;6215744;23;20155;-86
2022/09/28 04:36:06;;;;;;;8.45;1.52;;;;;;;17.70;64.09;92989.75;6216055;23;20432;-86
2022/09/28 04:38:32;;;;;;;13.90;2.00;;;;;;;17.51;64.86;92988.63;6190779;23;20004;-86
2022/09/28 04:40:58;;;;;;;10.55;1.70;;;;;;;17.65;66.45;92986.28;6214883;23;20000;-86
2022/09/28 04:43:23;;;;;;;8.55;1.63;;;;;;;17.53;65.38;92984.50;6216032;23;20010;-86
2022/09/28 04:45:48;;;;;;;5.78;1.40;;;;;;;17.56;62.07;92990.19;6190991;23;20046;-86
2022/09/28 04:48:14;;;;;;;10.38;1.45;;;;;;;17.53;61.37;92984.50;6217357;23;20023;-85
2022/09/28 04:50:39;;;;;;;11.63;1.90;;;;;;;16.88;65.80;92990.13;6215665;23;20031;-86
2022/09/28 04:53:04;;;;;;;8.77;1.73;;;;;;;17.20;64.60;92988.28;6215736;23;20001;-86
2022/09/28 04:55:31;;;;;;;4.75;1.15;;;;;;;17.17;62.37;92985.56;6215905;23;19996;-86
2022/09/28 04:58:02;;;;;;;6.38;1.13;;;;;;;17.23;62.92;92981.56;6216059;23;20008;-86
2022/09/28 05:00:32;;;;;;;8.80;1.30;;;;;;;16.89;66.83;92983.75;6191219;23;20099;-86
2022/09/28 05:02:58;;;;;;;15.60;1.80;;;;;;;16.74;65.63;92988.69;6191851;23;19993;-86
2022/09/28 05:05:23;;;;;;;12.75;1.92;;;;;;;16.57;69.25;92994.28;6166061;23;20476;-86
2022/09/28 05:07:49;;;;;;;8.57;1.58;;;;;;;16.74;66.43;92990.56;6190646;23;20020;-86
2022/09/28 05:10:14;;;;;;;17.65;2.08;;;;;;;16.78;65.82;92986.13;6190445;23;19996;-85
2022/09/28 05:12:40;;;;;;;13.70;2.08;;;;;;;16.68;64.94;92974.94;6190669;23;19997;-86
2022/09/28 05:15:05;;;;;;;6.63;1.67;;;;;;;17.02;63.51;92979.19;6190691;23;20326;-86
2022/09/28 05:17:31;;;;;;;20.10;1.40;;;;;;;16.89;66.33;92973.16;6190516;23;20001;-86
2022/09/28 05:19:56;;;;;;;6.38;1.60;;;;;;;16.89;70.80;92979.22;6190207;23;20011;-87
2022/09/28 05:22:22;;;;;;;6.60;1.63;;;;;;;17.12;64.37;92986.59;6191514;23;19997;-85
2022/09/28 05:24:47;;;;;;;14.48;1.70;;;;;;;17.02;66.27;92969.34;6165897;23;20087;-86
2022/09/28 05:27:13;;;;;;;17.42;2.17;;;;;;;16.61;67.61;92974.00;6190651;23;19997;-86
2022/09/28 05:29:38;;;;;;;9.02;1.55;;;;;;;16.84;66.70;92982.13;6165886;23;20314;-87
2022/09/28 05:32:04;;;;;;;10.38;1.77;;;;;;;17.06;65.93;92987.97;6217258;23;20072;-87
2022/09/28 05:34:29;;;;;;;6.90;1.55;;;;;;;16.81;70.78;92977.50;6217293;23;20000;-87
2022/09/28 05:36:55;;;;;;;11.43;1.92;;;;;;;17.00;66.95;92984.81;6190751;23;20003;-86
2022/09/28 05:39:20;;;;;;;10.70;1.88;;;;;;;16.83;68.24;92980.56;6189964;23;20366;-87
2022/09/28 05:41:46;;;;;;;8.10;1.48;;;;;;;16.86;67.93;92979.91;6166264;23;20047;-87
2022/09/28 05:44:11;;;;;;;5.93;1.20;;;;;;;17.03;66.17;92973.53;6166261;23;20004;-87
2022/09/28 05:46:40;;;;;;;10.50;1.38;;;;;;;17.16;64.63;92976.88;6189648;23;20016;-87
2022/09/28 05:49:05;;;;;;;7.00;1.20;;;;;;;17.24;65.60;92980.44;6190288;23;20032;-87
2022/09/28 05:51:31;;;;;;;9.07;1.15;;;;;;;17.25;66.01;92984.63;6190686;23;20000;-87
2022/09/28 05:53:56;;;;;;;8.68;1.30;;;;;;;17.55;62.26;92981.50;6168061;23;20008;-86
2022/09/28 05:56:22;;;;;;;12.02;2.03;;;;;;;17.08;66.87;92986.53;6192461;23;20402;-88
2022/09/28 05:58:47;;;;;;;10.52;1.80;;;;;;;17.17;74.54;92982.91;6192424;23;20079;-87
2022/09/28 06:01:13;;;;;;;9.85;1.50;;;;;;;17.46;63.40;92987.00;6201518;23;20013;-87
2022/09/28 06:03:38;;;;;;;9.15;1.45;;;;;;;17.73;68.15;92987.19;6192896;23;20078;-86
2022/09/28 06:06:04;;;;;;;8.02;1.08;;;;;;;17.92;63.32;92993.63;6217457;23;20086;-87
2022/09/28 06:08:32;;;;;;;10.90;1.17;;;;;;;17.56;71.43;92988.34;6217428;23;19997;-87
2022/09/28 06:11:00;;;;;;;4.72;1.13;;;;;;;17.95;62.19;92993.72;6217041;23;19997;-87
2022/09/28 06:13:26;;;;;;;5.20;0.90;;;;;;;18.20;63.65;93001.41;6217764;23;20000;-87
2022/09/28 06:15:52;;;;;;;6.45;1.58;;;;;;;18.21;63.61;93000.28;6193026;23;20020;-87
2022/09/28 06:18:17;;;;;;;9.65;1.27;;;;;;;17.74;67.10;92996.69;6217843;23;19997;-87
2022/09/28 06:20:42;;;;;;;10.57;1.40;;;;;;;17.88;66.73;92998.09;6192273;23;20004;-87
2022/09/28 06:23:09;;;;;;;5.85;1.67;;;;;;;18.23;64.64;92997.28;6217580;23;19997;-87
2022/09/28 06:25:35;;;;;;;6.97;1.38;;;;;;;18.02;66.20;92998.41;6192391;23;20418;-87
2022/09/28 06:28:06;;;;;;;8.75;1.77;;;;;;;17.67;72.08;92988.56;6192756;23;20126;-88
2022/09/28 06:30:33;;;;;;;10.35;2.00;;;;;;;17.88;73.81;92988.25;6192394;23;20127;-87
2022/09/28 06:33:00;;;;;;;12.40;2.63;;;;;;;18.24;68.18;92988.22;6192676;23;20008;-87
2022/09/28 06:35:29;;;;;;;12.73;2.83;;;;;;;17.51;74.24;92985.97;6193064;23;20008;-89
2022/09/28 06:37:54;;;;;;;11.65;2.00;;;;;;;17.78;71.96;92999.38;6217589;23;20004;-89
2022/09/28 06:40:20;;;;;;;6.13;1.60;;;;;;;17.94;66.62;92994.03;6217205;23;20322;-88
2022/09/28 06:42:59;;;;;;;17.65;2.50;;;;;;;18.76;63.43;92988.78;6217600;23;20005;-88
2022/09/28 06:45:26;;;;;;;11.30;1.83;;;;;;;18.80;69.99;92994.16;6192264;23;20012;-89
2022/09/28 06:47:54;;;;;;;7.13;1.42;;;;;;;19.19;64.83;92990.63;6217276;23;20051;-87
2022/09/28 06:50:20;;;;;;;7.93;1.55;;;;;;;19.53;63.63;92982.81;6217294;23;20001;-87
2022/09/28 06:52:49;;;;;;;7.80;1.73;;;;;;;19.62;63.33;92979.91;6192265;23;20020;-88
2022/09/28 06:55:14;;;;;;;8.32;1.90;;;;;;;19.46;64.87;92991.44;6192495;23;20012;-88
2022/09/28 06:58:16;;;;;;;11.55;2.60;;;;;;;19.51;71.19;92995.69;6192512;23;19996;-89
2022/09/28 07:00:42;;;;;;;8.90;2.88;;;;;;;19.78;70.15;92993.00;6216788;23;20016;-88
2022/09/28 07:03:11;;;;;;;13.40;2.45;;;;;;;19.82;68.25;92996.50;6192410;23;20016;-89
2022/09/28 07:05:40;;;;;;;8.27;1.95;;;;;;;20.05;68.82;93000.97;6216775;23;20004;-88
2022/09/28 07:08:05;;;;;;;8.27;2.28;;;;;;;20.44;69.82;92999.91;6192357;23;20004;-88
2022/09/28 07:10:31;;;;;;;11.63;1.60;;;;;;;20.59;59.53;92998.94;6216568;23;20023;-89
2022/09/28 07:13:01;;;;;;;5.07;1.60;;;;;;;20.84;61.33;93001.09;6217024;23;20000;-88
2022/09/28 07:15:26;;;;;;;10.18;2.88;;;;;;;;;;6192670;23;20039;-87
2022/09/28 07:17:57;;;;;;;9.13;1.58;;;;;;;21.00;55.43;93000.09;6218164;23;20410;-87
2022/09/28 07:20:23;;;;;;;6.15;1.30;;;;;;;19.13;59.55;92995.47;6216706;23;20028;-89
2022/09/28 07:22:52;;;;;;;12.32;1.80;;;;;;;20.76;59.63;92997.59;6217645;23;20024;-89
2022/09/28 07:25:18;;;;;;;5.43;1.17;;;;;;;20.91;56.87;93000.41;6217104;23;19996;-90
2022/09/28 07:27:43;;;;;;;8.50;1.30;;;;;;;21.14;55.13;92988.81;6192057;23;20011;-90
2022/09/28 07:30:09;;;;;;;7.82;1.42;;;;;;;21.15;54.89;92993.75;6216241;23;20000;-90
2022/09/28 07:32:36;;;;;;;10.75;1.48;;;;;;;21.39;61.01;92999.66;6192119;23;20004;-89
2022/09/28 07:35:07;;;;;;;10.15;1.75;;;;;;;21.87;59.72;92998.88;6216948;23;20323;-89
2022/09/28 07:37:34;;;;;;;8.68;1.33;;;;;;;21.24;55.13;93000.69;6217339;23;20092;-89
2022/09/28 07:42:47;;;;;;;11.30;1.67;;;;;;;21.91;58.22;93004.22;6216799;23;20376;-90
2022/09/28 07:45:13;;;;;;;6.88;1.60;;;;;;;21.88;61.27;93008.38;6191835;23;20001;-90
2022/09/28 07:47:54;;;;;;;10.50;1.60;;;;;;;21.83;58.43;93007.97;6216981;23;20007;-90
2022/09/28 07:50:20;;;;;;;6.43;1.23;;;;;;;21.17;59.58;93002.19;6191293;23;20020;-90
2022/09/28 07:52:45;;;;;;;11.70;1.63;;;;;;;21.09;60.01;92999.78;6216614;23;20075;-88
2022/09/28 07:55:11;;;;;;;15.35;1.50;;;;;;;21.28;54.53;93002.25;6216844;23;20000;-89
2022/09/28 07:57:36;;;;;;;17.40;2.13;;;;;;;21.68;57.43;92997.22;6217129;23;20398;-89
2022/09/28 08:00:05;;;;;;;6.65;1.70;;;;;;;21.55;58.71;92999.41;6216494;23;20008;-90
2022/09/28 08:02:33;;;;;;;8.68;1.80;;;;;;;21.50;56.96;93007.72;6191880;23;20004;-90
2022/09/28 08:04:59;;;;;;;4.72;0.95;;;;;;;21.79;53.03;93005.28;6217025;23;20001;-90
2022/09/28 08:07:24;;;;;;;6.93;1.40;;;;;;;21.80;53.30;93017.47;6191879;23;20051;-89
2022/09/28 08:09:50;;;;;;;16.60;1.88;;;;;;;21.25;57.26;93003.00;6216966;23;20019;-91
2022/09/28 08:12:18;;;;;;;7.65;1.90;;;;;;;21.43;55.59;93018.34;6192736;23;20060;-90
2022/09/28 08:14:44;;;;;;;9.48;1.48;;;;;;;20.33;56.22;93002.44;6192342;23;19997;-90
2022/09/28 08:17:09;;;;;;;10.57;1.60;;;;;;;21.07;57.25;93005.50;6191973;23;20000;-89
2022/09/28 08:22:19;;;;;;;16.95;1.83;;;;;;;21.55;55.03;92999.41;6216546;23;20016;-90
2022/09/28 08:24:46;;;;;;;9.73;1.80;;;;;;;20.95;55.00;92984.47;6191748;23;20000;-89
2022/09/28 08:27:12;;;;;;;9.93;1.30;;;;;;;21.44;53.38;92996.66;6191975;23;20050;-88
2022/09/28 08:29:38;;;;;;;11.30;1.20;;;;;;;21.02;54.33;93000.53;6216296;23;20322;-88
2022/09/28 08:32:06;;;;;;;11.95;2.45;;;;;;;19.69;56.36;93003.16;6216024;23;20004;-90
2022/09/28 08:34:33;;;;;;;16.83;1.50;;;;;;;20.38;55.14;92994.16;6216179;23;20003;-87
2022/09/28 08:36:58;;;;;;;15.93;1.75;;;;;;;20.19;55.17;93000.41;6217751;23;20000;-88
2022/09/28 08:39:23;;;;;;;23.40;1.83;;;;;;;19.27;58.28;92987.00;6216107;23;20313;-87
2022/09/28 08:42:29;;;;;;;15.52;1.40;;;;;;;20.14;57.58;92990.06;6216353;23;20011;-87
2022/09/28 08:45:20;;;;;;;10.80;1.15;;;;;;;19.48;59.75;92986.53;6133177;23;20001;-89
2022/09/28 08:51:07;;;;;;;7.53;1.80;;;;;;;19.96;59.39;92987.22;6216094;23;20416;-87
2022/09/28 08:53:41;;;;;;;13.15;1.50;;;;;;;20.74;58.04;92997.19;6216373;23;20007;-88
2022/09/28 08:56:12;;;;;;;5.55;1.48;;;;;;;19.55;60.00;92983.22;6216239;23;20012;-90
2022/09/28 08:58:41;;;;;;;8.68;1.67;;;;;;;19.46;61.73;92966.75;6216063;23;20050;-90
2022/09/28 09:01:07;;;;;;;10.63;1.88;;;;;;;19.65;61.62;92987.16;6215236;23;20404;-89
2022/09/28 09:03:38;;;;;;;6.88;1.00;;;;;;;19.45;62.20;92957.25;6191450;23;20000;-90
2022/09/28 09:06:28;;;;;;;10.07;1.60;;;;;;;19.32;61.40;92967.34;6216032;23;19997;-90
2022/09/28 09:09:12;;;;;;;8.88;1.67;;;;;;;20.60;57.84;92979.19;6216030;23;20054;-87
2022/09/28 09:11:56;;;;;;;13.40;1.60;;;;;;;19.76;58.58;92979.31;6216109;23;19996;-90
2022/09/28 09:14:36;;;;;;;;;;;;;;;19.87;59.61;92966.16;6216471;23;20062;-90
2022/09/28 09:17:02;;;;;;;8.25;1.23;;;;;;;20.13;56.78;92952.09;6217127;23;19904;-89
2022/09/28 09:19:34;;;;;;;6.75;1.30;;;;;;;20.81;54.78;92959.25;6216652;23;20003;-88
2022/09/28 09:22:08;;;;;;;10.85;1.20;;;;;;;20.08;56.56;92954.31;6192279;23;20027;-89
2022/09/28 09:24:37;;;;;;;9.95;1.40;;;;;;;21.38;56.33;92962.75;6216331;23;20007;-88
2022/09/28 09:27:31;;;;;;;8.40;1.65;;;;;;;21.22;54.12;92944.38;6215696;23;20000;-88
2022/09/28 09:30:02;;;;;;;14.43;1.50;;;;;;;21.63;54.42;92952.25;6215750;23;20326;-88
2022/09/28 09:32:53;;;;;;;9.57;1.40;;;;;;;20.31;59.68;92954.19;6216210;23;20001;-88
2022/09/28 09:35:37;;;;;;;8.93;1.35;;;;;;;20.35;60.66;92960.28;6216003;23;20004;-90
2022/09/28 09:38:30;;;;;;;8.25;1.08;;;;;;;21.44;59.62;92966.59;6214653;23;20115;-90
2022/09/28 09:41:01;;;;;;;5.82;1.08;;;;;;;20.93;61.01;92963.53;6216598;23;20001;-90
2022/09/28 09:43:32;;;;;;;15.20;1.50;;;;;;;22.20;58.40;92966.25;6216229;23;20307;-90
2022/09/28 09:46:15;;;;;;;7.65;0.95;;;;;;;21.83;59.36;92986.66;6215866;23;20011;-90
2022/09/28 09:48:57;;;;;;;7.07;0.88;;;;;;;21.42;57.19;92979.53;6215749;23;19997;-90
2022/09/28 09:51:44;;;;;;;10.05;1.10;;;;;;;21.24;58.68;92974.06;6190902;23;19993;-90
2022/09/28 09:54:17;;;;;;;3.50;0.80;;;;;;;22.26;55.43;92975.44;6215790;23;20000;-89
2022/09/28 09:57:02;;;;;;;9.98;1.10;;;;;;;22.62;55.19;92982.81;6215921;23;20008;-89
2022/09/28 09:59:37;;;;;;;3.92;0.90;;;;;;;23.04;55.54;92984.03;6214756;23;20020;-85
2022/09/28 10:02:18;;;;;;;4.07;0.85;;;;;;;23.24;52.83;92973.72;6215441;23;20027;-86
2022/09/28 10:04:45;;;;;;;5.63;1.13;;;;;;;23.61;48.45;92981.72;6215307;23;20003;-85
2022/09/28 10:07:23;;;;;;;7.55;1.08;;;;;;;23.57;50.53;92971.81;6215646;23;20317;-86
2022/09/28 10:09:50;;;;;;;3.78;0.82;;;;;;;23.39;49.02;92971.81;6214896;23;20399;-86
2022/09/28 10:12:19;;;;;;;6.38;0.93;;;;;;;23.77;52.50;92967.97;6215533;23;20062;-86
2022/09/28 10:14:45;;;;;;;4.90;1.10;;;;;;;22.59;50.38;92965.63;6190610;23;20100;-86
2022/09/28 10:17:13;;;;;;;6.63;1.25;;;;;;;22.49;51.44;92963.69;6190381;23;20027;-85
2022/09/28 10:19:39;;;;;;;3.95;0.88;;;;;;;23.37;51.13;92959.97;6216223;23;20044;-85
2022/09/28 10:22:05;;;;;;;8.55;1.33;;;;;;;22.87;51.85;92956.16;6215366;23;20722;-85
2022/09/28 10:24:34;;;;;;;4.88;0.90;;;;;;;23.04;52.87;92946.63;6216766;23;20043;-86
2022/09/28 10:27:25;;;;;;;8.32;1.00;;;;;;;22.42;56.52;92957.19;6215392;23;20406;-86
2022/09/28 10:30:01;;;;;;;2.97;0.70;;;;;;;23.23;54.39;92958.06;6188977;23;20007;-86
2022/09/28 10:32:37;;;;;;;4.63;1.10;;;;;;;23.77;52.39;92958.00;6215305;23;20027;-86
2022/09/28 10:35:17;;;;;;;4.25;0.90;;;;;;;23.56;49.49;92951.56;6190582;23;20024;-86
2022/09/28 10:38:02;;;;;;;2.45;0.70;;;;;;;23.61;52.21;92949.66;6216821;23;19996;-86
2022/09/28 10:40:31;;;;;;;4.10;0.77;;;;;;;24.59;48.66;92942.03;6216562;23;20008;-86
2022/09/28 10:43:01;;;;;;;5.82;1.13;;;;;;;24.62;48.74;92938.56;6218607;23;20020;-86
2022/09/28 10:45:32;;;;;;;4.38;0.98;;;;;;;24.89;46.53;92931.91;6192134;23;20001;-86
2022/09/28 10:47:59;;;;;;;5.38;0.77;;;;;;;24.62;50.56;92930.53;6192231;23;20007;-86
2022/09/28 10:50:26;;;;;;;5.95;0.70;;;;;;;25.05;47.35;92932.19;6216619;23;19993;-86
2022/09/28 10:52:52;;;;;;;4.50;0.70;;;;;;;25.07;47.97;92919.16;6216986;23;19993;-86
2022/09/28 10:55:20;;;;;;;1.77;0.43;;;;;;;23.76;50.29;92913.69;6216981;23;20058;-86
2022/09/28 10:57:46;;;;;;;2.35;0.50;;;;;;;23.12;52.78;92918.00;6217272;23;19997;-85
2022/09/28 11:00:37;;;;;;;1.33;0.50;;;;;;;23.62;52.54;92909.19;6216300;23;20004;-86
2022/09/28 11:03:03;;;;;;;2.42;0.30;;;;;;;22.49;53.54;92923.66;6167628;23;20000;-86
2022/09/28 11:05:29;;;;;;;0.88;0.30;;;;;;;23.01;53.45;92918.75;6166903;23;20011;-86
2022/09/28 11:07:56;;;;;;;4.78;0.45;;;;;;;22.43;55.44;92912.56;6192048;23;20349;-86
2022/09/28 11:10:25;;;;;;;1.10;0.25;;;;;;;22.38;55.92;92935.06;6217853;23;20398;-87
2022/09/28 11:12:51;;;;;;;2.92;0.40;;;;;;;21.66;57.90;92934.75;6167951;23;19996;-86
2022/09/28 11:15:19;;;;;;;0.82;0.30;;;;;;;21.97;57.70;92929.97;6191692;23;20000;-87
2022/09/28 11:17:45;;;;;;;0.85;0.45;;;;;;;21.80;57.09;92913.50;6167238;23;20012;-86
2022/09/28 11:20:23;;;;;;;0.68;0.22;;;;;;;22.58;57.97;92924.81;6166789;23;20310;-86
2022/09/28 11:22:50;;;;;;;0.65;0.15;;;;;;;23.13;54.74;92924.88;6218092;23;20079;-88
2022/09/28 11:25:16;;;;;;;2.85;0.30;;;;;;;23.24;58.40;92920.28;6167984;23;20028;-87
2022/09/28 11:27:53;;;;;;;0.32;0.10;;;;;;;23.72;55.62;92913.72;6218129;23;20007;-87
2022/09/28 11:30:23;;;;;;;1.40;0.20;;;;;;;22.82;57.32;92921.81;6191627;23;20131;-87
2022/09/28 11:32:52;;;;;;;6.03;0.40;;;;;;;22.07;58.61;92918.56;6167694;23;20416;-87
2022/09/28 11:35:24;;;;;;;1.58;0.20;;;;;;;22.83;56.38;92915.34;6192511;23;20007;-88
2022/09/28 11:38:10;;;;;;;1.05;0.40;;;;;;;23.09;59.65;92916.84;6167203;23;20005;-87
2022/09/28 11:41:01;;;;;;;0.95;0.28;;;;;;;23.32;57.94;92917.63;6165460;23;20055;-87
2022/09/28 11:43:44;;;;;;;0.88;0.28;;;;;;;22.08;59.32;92906.00;6191811;23;20028;-87
2022/09/28 11:46:15;;;;;;;;;;;;;;;22.52;59.91;92914.91;6192508;23;20004;-88
2022/09/28 11:48:47;;;;;;;3.03;0.47;;;;;;;22.23;59.45;92907.59;6191853;23;20309;-89
2022/09/28 11:51:23;;;;;;;2.10;0.55;;;;;;;23.51;56.73;92906.50;6191610;23;20398;-88
2022/09/28 11:53:53;;;;;;;4.15;0.82;;;;;;;23.48;56.39;92917.22;6167095;23;20000;-86
2022/09/28 11:56:37;;;;;;;1.90;0.55;;;;;;;22.52;56.78;92910.34;6166323;23;20295;-86
2022/09/28 11:59:26;;;;;;;6.50;0.68;;;;;;;23.17;55.05;92906.94;6190869;23;20000;-86
2022/09/28 12:01:52;;;;;;;1.92;0.47;;;;;;;23.32;54.24;92905.03;6207998;23;20005;-85